Time;durP1;ratioP1;P1;durP2;ratioP2;P2;SDS_P1;SDS_P2;PMS_P1;PMS_P2;Temp;Humidity;BMP_temperature;BMP_pressure;BME280_temperature;BME280_humidity;BME280_pressure;Samples;Min_cycle;Max_cycle;Signal;HPM_P1;HPM_P2
2023/10/31 00:01:43;;;;;;;;;;;;;;;6.68;100.00;98123.97;5033635;28;20303;-81
2023/10/31 00:04:08;;;;;;;;;;;;;;;6.91;100.00;98134.13;5033725;28;19921;-85
2023/10/31 00:06:33;;;;;;;;;;;;;;;7.04;100.00;98134.31;5033617;28;19979;-83
2023/10/31 00:08:59;;;;;;;;;;;;;;;7.19;100.00;98137.03;5033677;28;19955;-83
2023/10/31 00:11:24;;;;;;;;;;;;;;;7.24;100.00;98150.78;5014560;28;19921;-83
2023/10/31 00:13:49;;;;;;;;;;;;;;;7.33;100.00;98139.75;5033651;28;19928;-83
2023/10/31 00:16:14;;;;;;;;;;;;;;;7.43;100.00;98146.19;5033585;28;19929;-83
2023/10/31 00:18:40;;;;;;;;;;;;;;;7.50;100.00;98137.94;5015814;28;20368;-82
2023/10/31 00:21:05;;;;;;;;;;;;;;;7.56;100.00;98134.97;5033517;28;20498;-83
2023/10/31 00:23:30;;;;;;;;;;;;;;;7.63;100.00;98131.06;5033226;28;19921;-83
2023/10/31 00:25:56;;;;;;;;;;;;;;;7.67;100.00;98124.66;5013835;28;19917;-84
2023/10/31 00:28:21;;;;;;;;;;;;;;;7.73;100.00;98132.22;5033351;28;20020;-82
2023/10/31 00:30:46;;;;;;;;;;;;;;;7.78;100.00;98130.16;5033015;28;19917;-82
2023/10/31 09:04:05;;;;;;;;;;;;;;;11.32;100.00;98556.31;5006797;28;20287;-88
2023/10/31 09:06:30;;;;;;;;;;;;;;;13.28;100.00;98556.13;4988154;28;19921;-84
2023/10/31 09:08:56;;;;;;;;;;;;;;;8.34;100.00;98554.44;5011598;28;19922;-86
2023/10/31 09:11:21;;;;;;;;;;;;;;;7.12;100.00;98551.88;5005911;28;20311;-89
2023/10/31 09:13:46;;;;;;;;;;;;;;;6.98;100.00;98561.25;5012481;28;20372;-89
2023/10/31 09:16:13;;;;;;;;;;;;;;;7.16;100.00;98559.50;5006790;28;19937;-85
2023/10/31 09:18:38;;;;;;;;;;;;;;;7.00;100.00;98575.19;5012034;28;19955;-83
2023/10/31 09:21:04;;;;;;;;;;;;;;;6.90;100.00;98568.69;5009440;28;20004;-80
2023/10/31 09:23:29;;;;;;;;;;;;;;;6.84;100.00;98575.06;5010203;28;19929;-82
2023/10/31 09:25:54;;;;;;;;;;;;;;;14.64;100.00;98561.84;5010450;28;19928;-82
2023/10/31 09:28:20;;;;;;;;;;;;;;;15.07;100.00;98532.59;4986994;28;19921;-88
2023/10/31 09:30:45;;;;;;;;;;;;;;;10.29;100.00;98544.25;5008596;28;19921;-84
2023/10/31 09:33:10;;;;;;;;;;;;;;;8.15;100.00;98570.41;5013051;28;19960;-82
2023/10/31 09:35:35;;;;;;;;;;;;;;;7.49;100.00;98577.25;5008818;28;20344;-84
2023/10/31 09:38:01;;;;;;;;;;;;;;;7.25;100.00;98574.03;4988987;28;19925;-82
2023/10/31 09:40:26;;;;;;;;;;;;;;;7.02;100.00;98578.63;5004604;28;19929;-82
2023/10/31 09:42:51;;;;;;;;;;;;;;;6.94;100.00;98583.41;5010862;28;19933;-83
2023/10/31 09:45:17;;;;;;;;;;;;;;;6.92;100.00;98582.63;5010395;28;19922;-82
2023/10/31 09:47:42;;;;;;;;;;;;;;;6.86;100.00;98585.53;4987823;28;19983;-82
2023/10/31 09:50:09;;;;;;;;;;;;;;;6.73;100.00;98577.34;5012508;28;19952;-82
2023/10/31 09:52:35;;;;;;;;;;;;;;;6.64;100.00;98565.50;5011535;28;19925;-82
2023/10/31 09:55:01;;;;;;;;;;;;;;;6.58;100.00;98578.09;5011686;28;20004;-81
2023/10/31 09:57:26;;;;;;;;;;;;;;;6.56;100.00;98575.53;5005430;28;20012;-81
2023/10/31 09:59:52;;;;;;;;;;;;;;;6.59;100.00;98562.22;5012572;28;19956;-82
2023/10/31 10:02:17;;;;;;;;;;;;;;;6.43;100.00;98571.72;5002619;28;19922;-80
2023/10/31 10:04:42;;;;;;;;;;;;;;;6.50;100.00;98570.53;5010104;28;19930;-81
2023/10/31 10:07:07;;;;;;;;;;;;;;;6.42;100.00;98575.28;5010707;28;20308;-83
2023/10/31 10:09:33;;;;;;;;;;;;;;;6.38;100.00;98571.06;4993662;28;19932;-83
2023/10/31 10:11:59;;;;;;;;;;;;;;;6.41;100.00;98570.94;4989412;28;19925;-82
2023/10/31 10:14:24;;;;;;;;;;;;;;;6.45;100.00;98573.38;5011127;28;20376;-86
2023/10/31 10:16:50;;;;;;;;;;;;;;;6.31;100.00;98589.75;5004638;28;19985;-82
2023/10/31 10:19:19;;;;;;;;;;;;;;;6.44;100.00;98586.59;4990946;28;19968;-82
2023/10/31 10:21:58;;;;;;;;;;;;;;;6.39;100.00;98583.31;5014313;28;20400;-85
2023/10/31 10:24:24;;;;;;;;;;;;;;;6.27;100.00;98585.59;4996398;28;20299;-81
2023/10/31 10:26:49;;;;;;;;;;;;;;;6.24;100.00;98590.09;5000668;28;20032;-82
2023/10/31 10:29:15;;;;;;;;;;;;;;;6.28;100.00;98586.44;5013650;28;19933;-82
2023/10/31 10:31:41;;;;;;;;;;;;;;;6.11;100.00;98579.25;5011110;28;20261;-81
2023/10/31 10:34:07;;;;;;;;;;;;;;;6.25;100.00;98591.81;4997747;28;19977;-83
2023/10/31 10:36:33;;;;;;;;;;;;;;;6.17;100.00;98587.75;5006507;28;20415;-84
2023/10/31 10:38:58;;;;;;;;;;;;;;;6.14;100.00;98584.38;5014468;28;19968;-84
2023/10/31 10:41:25;;;;;;;;;;;;;;;5.98;100.00;98586.84;5015602;28;19925;-85
2023/10/31 10:43:55;;;;;;;;;;;;;;;6.24;100.00;98584.84;4999484;28;19918;-83
2023/10/31 10:46:22;;;;;;;;;;;;;;;6.24;100.00;98592.72;4998326;28;19918;-94
2023/10/31 10:48:47;;;;;;;;;;;;;;;6.20;100.00;98583.28;4990892;28;19992;-84
2023/10/31 10:51:17;;;;;;;;;;;;;;;6.25;100.00;98581.28;5009235;28;20036;-86
2023/10/31 10:53:50;;;;;;;;;;;;;;;6.15;100.00;98586.13;5015587;28;20442;-85
2023/10/31 10:56:23;;;;;;;;;;;;;;;6.10;100.00;98582.84;4999950;28;19928;-82
2023/10/31 10:58:55;;;;;;;;;;;;;;;6.07;100.00;98582.97;5008109;28;19960;-82
2023/10/31 11:01:20;;;;;;;;;;;;;;;5.88;100.00;98590.75;4988914;28;19925;-83
2023/10/31 11:03:46;;;;;;;;;;;;;;;5.97;100.00;98587.78;4995776;28;19928;-82
2023/10/31 11:06:12;;;;;;;;;;;;;;;5.97;100.00;98585.16;5014944;28;19921;-81
2023/10/31 11:08:38;;;;;;;;;;;;;;;5.94;100.00;98583.47;4989328;28;19929;-85
2023/10/31 11:11:04;;;;;;;;;;;;;;;6.06;100.00;98586.50;5000635;28;19928;-84
2023/10/31 11:13:29;;;;;;;;;;;;;;;6.06;100.00;98591.75;4994772;28;20373;-83
2023/10/31 11:15:57;;;;;;;;;;;;;;;5.95;100.00;98589.56;4994021;28;20394;-81
2023/10/31 11:18:23;;;;;;;;;;;;;;;5.92;100.00;98584.44;5014925;28;19921;-81
2023/10/31 11:20:48;;;;;;;;;;;;;;;5.90;100.00;98591.53;5011337;28;19932;-85
2023/10/31 11:23:14;;;;;;;;;;;;;;;5.91;100.00;98588.00;5009739;28;19917;-83
2023/10/31 11:25:43;;;;;;;;;;;;;;;5.94;100.00;98583.47;4985418;28;20024;-86
2023/10/31 11:28:12;;;;;;;;;;;;;;;6.00;100.00;98590.28;4988191;28;19932;-81
2023/10/31 11:30:37;;;;;;;;;;;;;;;5.92;100.00;98585.31;4988678;28;20441;-86
2023/10/31 11:33:05;;;;;;;;;;;;;;;5.94;100.00;98583.47;4983596;28;20014;-82
2023/10/31 11:35:30;;;;;;;;;;;;;;;5.93;100.00;98597.50;4996991;28;19976;-87
2023/10/31 11:38:08;;;;;;;;;;;;;;;5.88;100.00;98585.50;4996865;28;19921;-85
2023/10/31 11:40:33;;;;;;;;;;;;;;;5.84;100.00;98587.41;4996725;28;19925;-86
2023/10/31 11:43:02;;;;;;;;;;;;;;;5.85;100.00;98583.00;5009443;28;20320;-85
2023/10/31 11:45:33;;;;;;;;;;;;;;;5.86;100.00;98585.56;4987841;28;19917;-84
2023/10/31 11:47:59;;;;;;;;;;;;;;;5.79;100.00;98581.47;5013378;28;19921;-88
2023/10/31 11:50:24;;;;;;;;;;;;;;;6.00;100.00;98580.59;4986544;28;19917;-83
2023/10/31 11:52:59;;;;;;;;;;;;;;;5.92;100.00;98584.44;5004932;28;19996;-86
2023/10/31 11:55:25;;;;;;;;;;;;;;;5.95;100.00;98590.44;5005749;28;19922;-86
2023/10/31 11:57:50;;;;;;;;;;;;;;;5.91;100.00;98586.22;5004360;28;19928;-86
2023/10/31 12:00:24;;;;;;;;;;;;;;;5.93;100.00;98583.53;4994348;28;20588;-85
2023/10/31 12:02:59;;;;;;;;;;;;;;;5.74;100.00;98586.06;5013038;28;20274;-83
2023/10/31 12:05:24;;;;;;;;;;;;;;;5.87;100.00;98592.53;4995749;28;20372;-88
2023/10/31 12:07:49;;;;;;;;;;;;;;;5.87;100.00;98591.66;5007777;28;19968;-88
2023/10/31 12:10:22;;;;;;;;;;;;;;;5.90;100.00;98597.66;4991737;28;19921;-84
2023/10/31 12:12:48;;;;;;;;;;;;;;;5.69;100.00;98598.56;4990947;28;20016;-88
2023/10/31 12:15:13;;;;;;;;;;;;;;;5.82;100.00;98589.22;5013547;28;20012;-82
2023/10/31 12:17:38;;;;;;;;;;;;;;;5.80;100.00;98597.19;4985225;28;19914;-83
2023/10/31 12:20:07;;;;;;;;;;;;;;;5.78;100.00;98595.56;4995233;28;19929;-87
2023/10/31 12:22:33;;;;;;;;;;;;;;;5.88;100.00;98599.50;5012398;28;19925;-83
2023/10/31 12:25:05;;;;;;;;;;;;;;;5.83;100.00;98594.44;5010581;28;19917;-83
2023/10/31 12:27:44;;;;;;;;;;;;;;;5.76;100.00;98594.75;4987422;28;20016;-87
2023/10/31 12:30:09;;;;;;;;;;;;;;;5.80;100.00;98591.09;5012950;28;19924;-86
2023/10/31 12:32:34;;;;;;;;;;;;;;;5.71;100.00;98591.47;5007780;28;20347;-83
2023/10/31 12:35:00;;;;;;;;;;;;;;;5.71;100.00;98596.72;5001157;28;20369;-83
2023/10/31 12:37:25;;;;;;;;;;;;;;;5.60;100.00;98597.16;5003528;28;19971;-83
2023/10/31 12:39:50;;;;;;;;;;;;;;;5.75;100.00;98595.69;5004008;28;19918;-87
2023/10/31 12:42:16;;;;;;;;;;;;;;;5.70;100.00;98592.41;5012409;28;19968;-84
2023/10/31 12:44:42;;;;;;;;;;;;;;;5.68;100.00;98592.47;5004151;28;19960;-84
2023/10/31 12:47:07;;;;;;;;;;;;;;;5.65;100.00;98603.09;5006614;28;19975;-84
2023/10/31 12:49:33;;;;;;;;;;;;;;;5.70;100.00;98603.75;4994860;28;20024;-85
2023/10/31 12:51:59;;;;;;;;;;;;;;;5.71;100.00;98601.97;4991910;28;19929;-86
2023/10/31 12:54:31;;;;;;;;;;;;;;;5.66;100.00;98602.16;5004118;28;20012;-86
2023/10/31 12:57:00;;;;;;;;;;;;;;;5.73;100.00;98605.41;5010992;28;19968;-88
2023/10/31 12:59:26;;;;;;;;;;;;;;;5.68;100.00;98615.25;4992159;28;19921;-82
2023/10/31 13:01:51;;;;;;;;;;;;;;;5.72;100.00;98615.06;4993860;28;19928;-81
2023/10/31 13:04:26;;;;;;;;;;;;;;;5.77;100.00;98620.13;4995365;28;19917;-86
2023/10/31 13:07:05;;;;;;;;;;;;;;;5.80;100.00;98617.38;4989147;28;19961;-82
2023/10/31 13:09:35;;;;;;;;;;;;;;;5.80;100.00;98618.22;5012649;28;19929;-84
2023/10/31 13:12:06;;;;;;;;;;;;;;;5.72;100.00;98615.06;5009363;28;20484;-86
2023/10/31 13:14:32;;;;;;;;;;;;;;;5.79;100.00;98605.13;4996750;28;19944;-82
2023/10/31 13:16:57;;;;;;;;;;;;;;;5.75;100.00;98608.81;4992215;28;19933;-82
2023/10/31 13:19:23;;;;;;;;;;;;;;;5.80;100.00;98612.09;5011259;28;20016;-87
2023/10/31 13:21:48;;;;;;;;;;;;;;;5.75;100.00;98617.56;5010883;28;19996;-85
2023/10/31 13:24:13;;;;;;;;;;;;;;;5.60;100.00;98616.44;4987445;28;19925;-87
2023/10/31 13:26:39;;;;;;;;;;;;;;;5.71;100.00;98630.88;4993449;28;19921;-86
2023/10/31 13:29:04;;;;;;;;;;;;;;;5.53;100.00;98617.59;4994841;28;20012;-87
2023/10/31 13:31:29;;;;;;;;;;;;;;;5.56;100.00;98614.00;4985654;28;19917;-86
2023/10/31 13:33:54;;;;;;;;;;;;;;;5.72;100.00;98624.72;4986030;28;19929;-86
2023/10/31 13:36:20;;;;;;;;;;;;;;;5.74;100.00;98617.63;4988962;28;19980;-87
2023/10/31 13:38:46;;;;;;;;;;;;;;;5.65;100.00;98618.88;5008532;28;19961;-86
2023/10/31 13:41:12;;;;;;;;;;;;;;;5.56;100.00;98619.25;4990151;28;19922;-83
2023/10/31 13:43:37;;;;;;;;;;;;;;;5.59;100.00;98614.72;4984684;28;19941;-87
2023/10/31 13:46:02;;;;;;;;;;;;;;;5.66;100.00;98628.44;4985014;28;19925;-87
2023/10/31 13:48:27;;;;;;;;;;;;;;;5.72;100.00;98627.34;4992049;28;19972;-87
2023/10/31 13:50:53;;;;;;;;;;;;;;;5.69;100.00;98627.47;4994233;28;20052;-87
2023/10/31 13:53:18;;;;;;;;;;;;;;;5.67;100.00;98629.31;5012260;28;19949;-84
2023/10/31 13:55:44;;;;;;;;;;;;;;;5.57;100.00;98637.56;5003038;28;19925;-82
2023/10/31 13:58:09;;;;;;;;;;;;;;;5.66;100.00;98635.50;4986551;28;19934;-86
2023/10/31 14:00:35;;;;;;;;;;;;;;;5.67;100.00;98635.44;4986041;28;20047;-83
2023/10/31 14:03:00;;;;;;;;;;;;;;;6.09;100.00;98650.34;5011091;28;19936;-85
2023/10/31 14:05:25;;;;;;;;;;;;;;;6.47;100.00;98650.47;5006972;28;19926;-85
2023/10/31 14:07:51;;;;;;;;;;;;;;;6.73;100.00;98666.88;5002211;28;20443;-85
2023/10/31 14:10:19;;;;;;;;;;;;;;;6.95;100.00;98665.91;4993164;28;20397;-84
2023/10/31 14:12:45;;;;;;;;;;;;;;;7.08;100.00;98673.19;4985577;28;19922;-86
2023/10/31 14:15:10;;;;;;;;;;;;;;;7.24;100.00;98675.06;5008524;28;20517;-85
2023/10/31 14:17:35;;;;;;;;;;;;;;;7.29;100.00;98686.25;4981914;28;19918;-82
2023/10/31 14:20:00;;;;;;;;;;;;;;;7.41;100.00;98685.69;4988463;28;20345;-85
2023/10/31 14:22:26;;;;;;;;;;;;;;;7.46;100.00;98688.94;4984691;28;20285;-87
2023/10/31 14:24:51;;;;;;;;;;;;;;;7.57;100.00;98690.22;4990303;28;19965;-86
2023/10/31 14:27:16;;;;;;;;;;;;;;;7.64;100.00;98691.63;5008734;28;19949;-84
2023/10/31 14:29:41;;;;;;;;;;;;;;;7.75;100.00;98694.59;4988440;28;19972;-83
2023/10/31 14:32:07;;;;;;;;;;;;;;;7.78;100.00;98696.25;4991536;28;19917;-88
2023/10/31 14:34:32;;;;;;;;;;;;;;;7.82;100.00;98690.75;4993440;28;19936;-83
2023/10/31 14:36:57;;;;;;;;;;;;;;;7.88;100.00;98696.66;4980159;28;20008;-85
2023/10/31 14:39:23;;;;;;;;;;;;;;;7.91;100.00;98689.41;4985375;28;19965;-83
2023/10/31 14:41:48;;;;;;;;;;;;;;;7.98;100.00;98695.28;4986340;28;20006;-86
2023/10/31 14:44:13;;;;;;;;;;;;;;;8.01;100.00;98695.13;5005147;28;19926;-82
2023/10/31 14:46:39;;;;;;;;;;;;;;;8.06;100.00;98702.78;4994946;28;19921;-86
2023/10/31 14:49:04;;;;;;;;;;;;;;;8.07;100.00;98709.78;4995860;28;19941;-87
2023/10/31 14:51:30;;;;;;;;;;;;;;;8.09;100.00;98714.06;4988624;28;19925;-84
2023/10/31 14:53:55;;;;;;;;;;;;;;;8.16;100.00;98712.81;4994581;28;19922;-87
2023/10/31 14:56:21;;;;;;;;;;;;;;;8.19;100.00;98719.72;5001453;28;20309;-86
2023/10/31 14:58:47;;;;;;;;;;;;;;;8.28;100.00;98715.75;4992261;28;20372;-88
2023/10/31 15:01:13;;;;;;;;;;;;;;;8.24;100.00;98719.50;4995769;28;19933;-84
2023/10/31 15:03:38;;;;;;;;;;;;;;;8.27;100.00;98722.00;5015354;28;20081;-83
2023/10/31 15:06:04;;;;;;;;;;;;;;;8.33;100.00;98722.53;5007672;28;20036;-87
2023/10/31 15:08:29;;;;;;;;;;;;;;;8.38;100.00;98719.66;5010686;28;19992;-88
2023/10/31 15:10:56;;;;;;;;;;;;;;;8.42;100.00;98731.75;5004423;28;20354;-93
2023/10/31 15:13:22;;;;;;;;;;;;;;;8.46;100.00;98730.72;4990500;28;20418;-85
2023/10/31 15:15:47;;;;;;;;;;;;;;;8.44;100.00;98731.72;5009235;28;20008;-85
2023/10/31 15:18:13;;;;;;;;;;;;;;;8.47;100.00;98735.06;5011842;28;20016;-85
2023/10/31 15:20:38;;;;;;;;;;;;;;;8.51;100.00;98741.88;4988381;28;19972;-82
2023/10/31 15:23:03;;;;;;;;;;;;;;;8.50;100.00;98740.19;5008428;28;19922;-81
2023/10/31 15:25:28;;;;;;;;;;;;;;;8.62;100.00;98748.41;4995391;28;19925;-86
2023/10/31 15:27:55;;;;;;;;;;;;;;;8.52;100.00;98746.25;4991165;28;20016;-86
2023/10/31 15:30:20;;;;;;;;;;;;;;;8.57;100.00;98756.56;4995762;28;20426;-81
2023/10/31 15:32:45;;;;;;;;;;;;;;;8.58;100.00;98757.41;5004271;28;19925;-88
2023/10/31 15:35:10;;;;;;;;;;;;;;;8.59;100.00;98759.97;4987383;28;19917;-85
2023/10/31 15:37:36;;;;;;;;;;;;;;;8.64;100.00;98754.47;4993165;28;19929;-83
2023/10/31 15:40:03;;;;;;;;;;;;;;;8.64;100.00;98762.38;5013494;28;20277;-87
2023/10/31 15:42:28;;;;;;;;;;;;;;;8.65;100.00;98758.81;4988725;28;19917;-88
2023/10/31 15:44:55;;;;;;;;;;;;;;;8.62;100.00;98767.75;5008914;28;19922;-87
2023/10/31 15:47:21;;;;;;;;;;;;;;;8.65;100.00;98780.78;4999670;28;19922;-84
2023/10/31 15:49:46;;;;;;;;;;;;;;;8.69;100.00;98781.47;4987040;28;20296;-87
2023/10/31 15:52:12;;;;;;;;;;;;;;;8.68;100.00;98779.75;5003868;28;20150;-85
2023/10/31 15:54:37;;;;;;;;;;;;;;;8.68;100.00;98785.03;5016993;28;19925;-83
2023/10/31 15:57:02;;;;;;;;;;;;;;;8.70;100.00;98789.34;5007335;28;20426;-86
2023/10/31 15:59:27;;;;;;;;;;;;;;;8.73;100.00;98788.34;5011835;28;19932;-90
2023/10/31 16:01:53;;;;;;;;;;;;;;;8.72;100.00;98789.25;4997871;28;19989;-85
2023/10/31 16:04:19;;;;;;;;;;;;;;;8.77;100.00;98789.88;4988529;28;20332;-86
2023/10/31 16:06:44;;;;;;;;;;;;;;;8.81;100.00;98791.44;5010875;28;20017;-95
2023/10/31 16:09:09;;;;;;;;;;;;;;;8.82;100.00;98797.56;5012984;28;20020;-88
2023/10/31 16:11:35;;;;;;;;;;;;;;;8.84;100.00;98801.84;4987959;28;19948;-84
2023/10/31 16:14:01;;;;;;;;;;;;;;;8.85;100.00;98800.88;4994873;28;20296;-83
2023/10/31 16:16:26;;;;;;;;;;;;;;;8.83;100.00;98800.13;5026269;28;20003;-81
2023/10/31 16:18:52;;;;;;;;;;;;;;;8.83;100.00;98804.56;5013637;28;20000;-92
2023/10/31 16:21:18;;;;;;;;;;;;;;;8.81;100.00;98811.72;4986799;28;19925;-86
2023/10/31 16:23:44;;;;;;;;;;;;;;;8.81;100.00;98807.28;5006312;28;19921;-91
2023/10/31 16:26:09;;;;;;;;;;;;;;;8.83;100.00;98817.78;5012297;28;19921;-84
2023/10/31 16:28:34;;;;;;;;;;;;;;;8.70;100.00;98814.91;5003941;28;19921;-89
2023/10/31 16:30:59;;;;;;;;;;;;;;;8.05;100.00;98818.03;5002165;28;20011;-85
2023/10/31 16:33:26;;;;;;;;;;;;;;;7.62;100.00;98817.41;5015256;28;19976;-86
2023/10/31 16:35:51;;;;;;;;;;;;;;;7.42;100.00;98813.91;5008438;28;19929;-85
2023/10/31 16:38:17;;;;;;;;;;;;;;;7.33;100.00;98809.06;5013402;28;19917;-88
2023/10/31 16:40:42;;;;;;;;;;;;;;;7.37;100.00;98815.91;5013480;28;20035;-88
2023/10/31 16:43:07;;;;;;;;;;;;;;;7.33;100.00;98814.31;5013576;28;19928;-86
2023/10/31 16:45:33;;;;;;;;;;;;;;;7.22;100.00;98817.44;4987336;28;19921;-83
2023/10/31 16:47:58;;;;;;;;;;;;;;;7.17;100.00;98822.06;4995674;28;19918;-84
2023/10/31 16:50:29;;;;;;;;;;;;;;;7.11;100.00;98817.06;5003508;28;19917;-88
2023/10/31 16:52:54;;;;;;;;;;;;;;;7.03;100.00;98824.44;5012737;28;19913;-85
2023/10/31 16:55:19;;;;;;;;;;;;;;;6.99;100.00;98828.13;5003474;28;20316;-88
2023/10/31 16:57:44;;;;;;;;;;;;;;;6.94;100.00;98828.34;4995614;28;19933;-84
2023/10/31 17:00:10;;;;;;;;;;;;;;;6.95;100.00;98829.19;4985493;28;19918;-92
2023/10/31 17:02:35;;;;;;;;;;;;;;;6.92;100.00;98830.16;4985435;28;19932;-84
2023/10/31 17:05:01;;;;;;;;;;;;;;;6.85;100.00;98841.91;4994529;28;19917;-85
2023/10/31 17:07:26;;;;;;;;;;;;;;;6.84;100.00;98838.38;5003078;28;19945;-86
2023/10/31 17:09:51;;;;;;;;;;;;;;;6.81;100.00;98849.09;5002907;28;20258;-82
2023/10/31 17:12:16;;;;;;;;;;;;;;;6.86;100.00;98851.50;5003020;28;19955;-82
2023/10/31 17:14:42;;;;;;;;;;;;;;;6.79;100.00;98856.16;5002695;28;19961;-84
2023/10/31 17:17:07;;;;;;;;;;;;;;;6.80;100.00;98857.88;5001707;28;20319;-86
2023/10/31 17:19:35;;;;;;;;;;;;;;;6.63;100.00;98860.38;5013191;28;19921;-90
2023/10/31 17:22:01;;;;;;;;;;;;;;;6.67;100.00;98869.84;5012975;28;19918;-86
2023/10/31 17:24:26;;;;;;;;;;;;;;;6.57;100.00;98866.72;5012787;28;20261;-92
2023/10/31 17:26:51;;;;;;;;;;;;;;;6.53;100.00;98870.44;5003169;28;20499;-82
2023/10/31 17:29:16;;;;;;;;;;;;;;;6.52;100.00;98880.06;5003014;28;19973;-85
2023/10/31 17:31:42;;;;;;;;;;;;;;;6.50;100.00;98878.44;5011102;28;19921;-88
2023/10/31 17:34:07;;;;;;;;;;;;;;;6.47;100.00;98884.69;5012492;28;19917;-85
2023/10/31 17:36:32;;;;;;;;;;;;;;;6.55;100.00;98879.94;5012243;28;19921;-85
2023/10/31 17:38:57;;;;;;;;;;;;;;;6.45;100.00;98883.88;4985458;28;19918;-88
2023/10/31 17:41:22;;;;;;;;;;;;;;;6.43;100.00;98898.91;4987755;28;20361;-85
2023/10/31 17:43:48;;;;;;;;;;;;;;;6.43;100.00;98884.84;4994618;28;20280;-82
2023/10/31 17:46:13;;;;;;;;;;;;;;;6.40;100.00;98895.50;5001538;28;20277;-86
2023/10/31 17:48:38;;;;;;;;;;;;;;;6.38;100.00;98897.34;5002151;28;19972;-86
2023/10/31 17:51:04;;;;;;;;;;;;;;;6.30;100.00;98906.41;5002552;28;19918;-85
2023/10/31 17:53:29;;;;;;;;;;;;;;;6.24;100.00;98906.66;5002734;28;19929;-84
2023/10/31 17:55:54;;;;;;;;;;;;;;;6.32;100.00;98912.47;5001052;28;19918;-86
2023/10/31 17:58:20;;;;;;;;;;;;;;;6.39;100.00;98917.50;5002398;28;20340;-83
2023/10/31 18:00:45;;;;;;;;;;;;;;;6.29;100.00;98920.47;5009964;28;19928;-82
2023/10/31 18:03:10;;;;;;;;;;;;;;;6.34;100.00;98917.66;5012021;28;19925;-87
2023/10/31 18:05:36;;;;;;;;;;;;;;;6.17;100.00;98915.69;5012239;28;19949;-87
2023/10/31 18:08:01;;;;;;;;;;;;;;;6.17;100.00;98915.69;5012189;28;19961;-86
2023/10/31 18:10:28;;;;;;;;;;;;;;;6.17;100.00;98915.69;5013723;28;19923;-89
2023/10/31 18:12:53;;;;;;;;;;;;;;;6.12;100.00;98922.91;5013446;28;19917;-88
2023/10/31 18:15:19;;;;;;;;;;;;;;;6.16;100.00;98930.63;5009358;28;19933;-82
2023/10/31 18:17:44;;;;;;;;;;;;;;;6.12;100.00;98925.53;5011783;28;19921;-88
2023/10/31 18:20:09;;;;;;;;;;;;;;;5.99;100.00;98918.09;5012958;28;19941;-89
2023/10/31 18:22:36;;;;;;;;;;;;;;;6.03;100.00;98924.13;5015740;28;20380;-83
2023/10/31 18:25:01;;;;;;;;;;;;;;;6.11;100.00;98926.44;5016439;28;19917;-85
2023/10/31 18:27:26;;;;;;;;;;;;;;;6.12;100.00;98930.78;5016254;28;20379;-87
2023/10/31 18:29:53;;;;;;;;;;;;;;;6.11;100.00;98936.97;5006263;28;19921;-84
2023/10/31 18:32:19;;;;;;;;;;;;;;;6.13;100.00;98943.03;4995992;28;19922;-87
2023/10/31 18:34:45;;;;;;;;;;;;;;;6.10;100.00;98944.00;5015208;28;20313;-92
2023/10/31 18:37:10;;;;;;;;;;;;;;;6.09;100.00;98944.91;5013055;28;19925;-85
2023/10/31 18:39:41;;;;;;;;;;;;;;;6.07;100.00;98946.75;5008019;28;20012;-90
2023/10/31 18:42:08;;;;;;;;;;;;;;;6.13;100.00;98950.94;5008098;28;19980;-89
2023/10/31 18:44:33;;;;;;;;;;;;;;;6.10;100.00;98948.41;5005925;28;19945;-89
2023/10/31 18:46:58;;;;;;;;;;;;;;;6.07;100.00;98949.38;4987987;28;19940;-90
2023/10/31 18:49:24;;;;;;;;;;;;;;;6.03;100.00;98946.91;5009619;28;19980;-85
2023/10/31 18:51:49;;;;;;;;;;;;;;;5.98;100.00;98953.22;4995599;28;19960;-86
2023/10/31 18:54:14;;;;;;;;;;;;;;;6.00;100.00;98954.03;4997097;28;19921;-84
2023/10/31 18:56:40;;;;;;;;;;;;;;;5.98;100.00;98952.34;4995339;28;19968;-84
2023/10/31 18:59:05;;;;;;;;;;;;;;;5.97;100.00;98961.16;5008447;28;19921;-88
2023/10/31 19:01:32;;;;;;;;;;;;;;;5.96;100.00;98957.66;4988588;28;20340;-92
2023/10/31 19:03:57;;;;;;;;;;;;;;;5.83;100.00;98959.00;4997698;28;20092;-90
2023/10/31 19:06:22;;;;;;;;;;;;;;;5.89;100.00;98958.78;4990765;28;20036;-92
2023/10/31 19:08:48;;;;;;;;;;;;;;;5.93;100.00;98951.63;5014059;28;19922;-90
2023/10/31 19:11:13;;;;;;;;;;;;;;;5.87;100.00;98958.00;4992127;28;19969;-84
2023/10/31 19:13:38;;;;;;;;;;;;;;;5.88;100.00;98954.44;5015131;28;19924;-87
2023/10/31 19:16:05;;;;;;;;;;;;;;;5.90;100.00;98949.97;4996393;28;20390;-84
2023/10/31 19:18:30;;;;;;;;;;;;;;;5.87;100.00;98950.09;5014334;28;19924;-88
2023/10/31 19:20:55;;;;;;;;;;;;;;;5.81;100.00;98956.44;5002002;28;19925;-88
2023/10/31 19:23:21;;;;;;;;;;;;;;;5.85;100.00;98946.66;4988621;28;20292;-85
2023/10/31 19:25:46;;;;;;;;;;;;;;;5.80;100.00;98953.88;4996354;28;19925;-85
2023/10/31 19:28:11;;;;;;;;;;;;;;;5.85;100.00;98957.16;5016349;28;19924;-87
2023/10/31 19:30:39;;;;;;;;;;;;;;;5.78;100.00;98953.06;4994971;28;20376;-90
2023/10/31 19:33:04;;;;;;;;;;;;;;;5.80;100.00;98952.09;5003827;28;19922;-85
2023/10/31 19:35:30;;;;;;;;;;;;;;;5.71;100.00;98954.19;5012753;28;20296;-87
2023/10/31 19:37:55;;;;;;;;;;;;;;;5.70;100.00;98950.72;5005356;28;20292;-91
2023/10/31 19:40:21;;;;;;;;;;;;;;;5.72;100.00;98951.50;4995436;28;19926;-82
2023/10/31 19:42:46;;;;;;;;;;;;;;;5.81;100.00;98950.34;4996386;28;19921;-83
2023/10/31 19:45:11;;;;;;;;;;;;;;;5.77;100.00;98954.81;4990170;28;19917;-85
2023/10/31 19:47:37;;;;;;;;;;;;;;;5.81;100.00;98952.97;5013195;28;19917;-87
2023/10/31 19:50:02;;;;;;;;;;;;;;;5.80;100.00;98959.13;4983946;28;20377;-84
2023/10/31 19:52:27;;;;;;;;;;;;;;;5.78;100.00;98958.31;4994656;28;19925;-85
2023/10/31 19:54:53;;;;;;;;;;;;;;;5.82;100.00;98957.28;4991333;28;20296;-86
2023/10/31 19:57:19;;;;;;;;;;;;;;;5.86;100.00;98960.69;4992959;28;20056;-84
2023/10/31 19:59:45;;;;;;;;;;;;;;;5.89;100.00;98953.53;5016981;28;19929;-87
2023/10/31 20:02:10;;;;;;;;;;;;;;;5.94;100.00;98961.25;5003670;28;20277;-85
2023/10/31 20:04:36;;;;;;;;;;;;;;;5.87;100.00;98959.75;5014425;28;19929;-92
2023/10/31 20:07:01;;;;;;;;;;;;;;;5.84;100.00;98960.75;4988061;28;20015;-87
2023/10/31 20:09:26;;;;;;;;;;;;;;;5.92;100.00;98958.69;5009198;28;19980;-88
2023/10/31 20:11:51;;;;;;;;;;;;;;;5.87;100.00;98960.63;5002018;28;19921;-86
2023/10/31 20:14:17;;;;;;;;;;;;;;;5.84;100.00;98952.84;4995588;28;19925;-86
2023/10/31 20:16:43;;;;;;;;;;;;;;;5.87;100.00;98950.09;5011799;28;19921;-88
2023/10/31 20:19:09;;;;;;;;;;;;;;;5.90;100.00;98955.22;5005318;28;19922;-84
2023/10/31 20:21:35;;;;;;;;;;;;;;;5.85;100.00;98949.28;4994489;28;19925;-92
2023/10/31 20:24:00;;;;;;;;;;;;;;;5.89;100.00;98953.53;4988366;28;19929;-89
2023/10/31 20:26:27;;;;;;;;;;;;;;;5.93;100.00;98952.47;4987877;28;19929;-86
2023/10/31 20:28:52;;;;;;;;;;;;;;;5.80;100.00;98948.59;4995814;28;20315;-86
2023/10/31 20:31:17;;;;;;;;;;;;;;;5.77;100.00;98946.09;4981469;28;19917;-87
2023/10/31 20:33:43;;;;;;;;;;;;;;;5.68;100.00;98943.78;4982481;28;19924;-82
2023/10/31 20:36:09;;;;;;;;;;;;;;;5.80;100.00;98959.97;5006445;28;19955;-82
2023/10/31 20:38:35;;;;;;;;;;;;;;;5.73;100.00;98947.13;5013295;28;20325;-93
2023/10/31 20:41:00;;;;;;;;;;;;;;;5.73;100.00;98944.50;4999820;28;19953;-83
2023/10/31 20:43:26;;;;;;;;;;;;;;;5.70;100.00;98942.81;4991317;28;19925;-83
2023/10/31 20:45:51;;;;;;;;;;;;;;;5.73;100.00;98947.13;4992509;28;19947;-81
2023/10/31 20:48:16;;;;;;;;;;;;;;;5.76;100.00;98936.47;4985523;28;20327;-88
2023/10/31 20:50:42;;;;;;;;;;;;;;;5.70;100.00;98944.59;5006363;28;20017;-87
2023/10/31 20:53:07;;;;;;;;;;;;;;;5.86;100.00;98943.13;4985987;28;19918;-82
2023/10/31 20:55:33;;;;;;;;;;;;;;;5.83;100.00;98937.97;5006771;28;19932;-86
2023/10/31 20:58:02;;;;;;;;;;;;;;;5.70;100.00;98941.97;4996735;28;19929;-89
2023/10/31 21:00:27;;;;;;;;;;;;;;;5.88;100.00;98949.19;5003818;28;19972;-84
2023/10/31 21:02:53;;;;;;;;;;;;;;;5.78;100.00;98942.56;4991148;28;19925;-87
2023/10/31 21:05:19;;;;;;;;;;;;;;;5.79;100.00;98937.25;5011933;28;20304;-90
2023/10/31 21:07:46;;;;;;;;;;;;;;;5.88;100.00;98936.03;5002824;28;19922;-88
2023/10/31 21:10:11;;;;;;;;;;;;;;;5.78;100.00;98925.00;5010967;28;19925;-86